createdAt,value
2018-05-04T00:03:43.858Z,11.94
2018-05-04T00:08:45.150Z,11.75
2018-05-04T00:13:46.448Z,11.72
2018-05-04T00:18:48.478Z,11.68
2018-05-04T00:23:49.785Z,11.56
2018-05-04T00:28:51.090Z,11.62
2018-05-04T00:33:52.381Z,11.65
2018-05-04T00:38:53.703Z,11.54
2018-05-04T00:43:55.039Z,11.47
2018-05-04T00:48:56.335Z,11.43
2018-05-04T00:54:16.030Z,11.28
2018-05-04T00:59:17.353Z,11.15
2018-05-04T01:04:18.691Z,11.06
2018-05-04T01:09:20.758Z,11.04
2018-05-04T01:14:22.069Z,10.96
2018-05-04T01:19:23.361Z,11.01
2018-05-04T01:24:24.676Z,11.09
2018-05-04T01:29:25.994Z,11.01
2018-05-04T01:34:27.294Z,10.91
2018-05-04T01:39:28.582Z,10.85
2018-05-04T01:44:29.886Z,10.87
2018-05-04T01:49:31.184Z,10.89
2018-05-04T01:54:32.499Z,10.85
2018-05-04T01:59:34.533Z,10.80
2018-05-04T02:04:35.875Z,10.70
2018-05-04T02:09:37.182Z,10.55
2018-05-04T02:14:38.485Z,10.37
2018-05-04T02:19:39.774Z,10.29
2018-05-04T02:24:41.079Z,10.19
2018-05-04T02:29:42.389Z,10.13
2018-05-04T02:34:43.677Z,9.94
2018-05-04T02:39:44.979Z,9.84
2018-05-04T02:44:46.285Z,9.75
2018-05-04T02:49:47.582Z,9.89
2018-05-04T02:54:49.616Z,10.10
2018-05-04T02:59:50.973Z,10.25
2018-05-04T03:04:52.975Z,10.24
2018-05-04T03:09:54.329Z,9.87
2018-05-04T03:14:55.725Z,9.64
2018-05-04T03:19:57.192Z,9.63
2018-05-04T03:24:58.478Z,9.66
2018-05-04T03:29:59.768Z,9.79
2018-05-04T03:35:01.092Z,9.69
2018-05-04T03:40:02.436Z,9.59
2018-05-04T03:45:04.545Z,9.40
2018-05-04T03:50:05.925Z,9.52
2018-05-04T03:55:07.970Z,9.39
2018-05-04T04:00:27.831Z,9.25
2018-05-04T04:05:29.143Z,9.48
2018-05-04T04:10:31.213Z,9.32
2018-05-04T04:15:32.531Z,9.55
2018-05-04T04:20:34.558Z,9.51
2018-05-04T04:25:35.844Z,9.68
2018-05-04T04:30:37.168Z,9.43
2018-05-04T04:35:38.492Z,9.56
2018-05-04T04:40:39.784Z,9.62
2018-05-04T04:45:41.131Z,9.59
2018-05-04T04:50:43.126Z,9.69
2018-05-04T04:55:44.422Z,9.85
2018-05-04T05:00:45.727Z,9.92
2018-05-04T05:05:47.022Z,10.07
2018-05-04T05:10:48.317Z,10.19
2018-05-04T05:15:49.616Z,10.31
2018-05-04T05:20:50.913Z,10.39
2018-05-04T05:25:52.973Z,10.36
2018-05-04T05:30:54.385Z,10.61
2018-05-04T05:35:55.657Z,11.04
2018-05-04T05:40:56.945Z,11.22
2018-05-04T05:45:58.248Z,11.60
2018-05-04T05:50:59.545Z,11.73
2018-05-04T05:56:00.829Z,11.89
2018-05-04T06:01:02.241Z,12.01
2018-05-04T06:06:03.503Z,12.09
2018-05-04T06:11:04.878Z,12.36
2018-05-04T06:16:06.198Z,12.65
2018-05-04T06:21:07.510Z,12.78
2018-05-04T06:26:09.577Z,12.88
2018-05-04T06:31:10.873Z,13.21
2018-05-04T06:36:12.181Z,13.45
2018-05-04T06:41:13.479Z,13.48
2018-05-04T06:46:15.504Z,13.89
2018-05-04T06:51:16.793Z,13.94
2018-05-04T06:56:18.093Z,14.10
2018-05-04T07:01:19.414Z,14.59
2018-05-04T07:06:20.737Z,14.78
2018-05-04T07:11:22.768Z,14.88
2018-05-04T07:16:24.096Z,14.89
2018-05-04T07:21:25.388Z,15.13
2018-05-04T07:26:26.725Z,15.12
2018-05-04T07:31:28.785Z,15.10
2018-05-04T07:36:30.090Z,15.43
2018-05-04T07:41:31.390Z,15.84
2018-05-04T07:46:32.725Z,16.17
2018-05-04T07:51:34.049Z,16.61
2018-05-04T07:56:35.361Z,17.01
2018-05-04T08:01:37.433Z,17.15
2018-05-04T08:06:38.743Z,17.27
2018-05-04T08:11:40.046Z,17.34
2018-05-04T08:16:42.142Z,17.32
2018-05-04T08:21:50.505Z,17.35
2018-05-04T08:26:51.819Z,17.42
2018-05-04T08:31:53.129Z,17.46
2018-05-04T08:36:54.438Z,17.90
2018-05-04T08:41:55.742Z,18.28
2018-05-04T08:46:57.054Z,18.42
2018-05-04T08:51:59.090Z,18.72
2018-05-04T08:57:00.405Z,18.78
2018-05-04T09:02:01.725Z,19.19
2018-05-04T09:07:03.061Z,19.41
2018-05-04T09:12:04.359Z,19.65
2018-05-04T09:17:05.666Z,19.84
2018-05-04T09:22:06.977Z,20.17
2018-05-04T09:27:08.269Z,20.48
2018-05-04T09:32:09.557Z,20.76
2018-05-04T09:37:10.867Z,20.52
2018-05-04T09:42:12.973Z,20.38
2018-05-04T09:47:14.214Z,20.48
2018-05-04T09:52:15.517Z,20.35
2018-05-04T09:57:16.823Z,20.78
2018-05-04T10:02:18.158Z,20.86
2018-05-04T10:07:19.502Z,20.99
2018-05-04T10:12:20.823Z,20.86
2018-05-04T10:17:22.140Z,20.74
2018-05-04T10:22:23.445Z,20.21
2018-05-04T10:27:24.747Z,19.96
2018-05-04T10:32:26.090Z,20.27
2018-05-04T10:37:27.494Z,20.85
2018-05-04T10:42:28.810Z,21.21
2018-05-04T10:47:30.160Z,21.16
2018-05-04T10:52:31.495Z,21.63
2018-05-04T10:57:32.824Z,21.23
2018-05-04T11:02:34.145Z,21.18
2018-05-04T11:07:35.469Z,20.53
2018-05-04T11:12:36.826Z,20.26
2018-05-04T11:17:38.154Z,20.33
2018-05-04T11:22:39.509Z,20.66
2018-05-04T11:27:40.848Z,20.73
2018-05-04T11:32:42.955Z,20.53
2018-05-04T11:37:44.277Z,20.43
2018-05-04T11:42:45.645Z,20.45
2018-05-04T11:47:47.697Z,20.50
2018-05-04T11:52:49.053Z,20.45
2018-05-04T11:57:50.422Z,20.61
2018-05-04T12:02:52.484Z,20.64
2018-05-04T12:07:53.803Z,20.75
2018-05-04T12:12:55.217Z,20.94
2018-05-04T12:17:56.529Z,21.00
2018-05-04T12:22:58.258Z,21.02
2018-05-04T12:28:00.986Z,21.14
2018-05-04T12:33:02.942Z,21.16
2018-05-04T12:38:04.269Z,21.38
2018-05-04T12:43:06.450Z,21.42
2018-05-04T12:48:07.793Z,21.41
2018-05-04T12:53:09.090Z,21.31
2018-05-04T12:58:11.151Z,21.59
2018-05-04T13:03:12.432Z,21.57
2018-05-04T13:08:13.743Z,21.42
2018-05-04T13:13:15.049Z,21.40
2018-05-04T13:18:16.372Z,21.09
2018-05-04T13:23:17.719Z,21.78
2018-05-04T13:28:19.134Z,21.58
2018-05-04T13:33:21.237Z,21.45
2018-05-04T13:38:22.462Z,21.75
2018-05-04T13:43:23.807Z,21.60
2018-05-04T13:48:25.910Z,21.59
2018-05-04T13:53:27.209Z,21.71
2018-05-04T13:58:29.269Z,22.00
2018-05-04T14:03:30.598Z,22.36
2018-05-04T14:08:31.914Z,22.45
2018-05-04T14:13:33.216Z,22.07
2018-05-04T14:18:34.506Z,22.18
2018-05-04T14:23:35.801Z,21.98
2018-05-04T14:28:37.111Z,22.09
2018-05-04T14:33:38.413Z,22.63
2018-05-04T14:38:39.751Z,22.51
2018-05-04T14:43:41.069Z,22.48
2018-05-04T14:48:42.867Z,22.23
2018-05-04T14:53:44.216Z,22.34
2018-05-04T14:58:46.394Z,22.52
2018-05-04T15:03:48.414Z,22.76
2018-05-04T15:08:49.715Z,22.65
2018-05-04T15:13:51.761Z,22.58
2018-05-04T15:18:53.062Z,22.80
2018-05-04T15:23:54.381Z,22.61
2018-05-04T15:28:55.707Z,22.08
2018-05-04T15:33:57.000Z,22.16
2018-05-04T15:38:58.354Z,22.73
2018-05-04T15:43:59.685Z,22.43
2018-05-04T15:49:06.998Z,22.41
2018-05-04T15:54:08.301Z,22.40
2018-05-04T15:59:09.633Z,22.38
2018-05-04T16:04:10.953Z,22.35
2018-05-04T16:09:13.006Z,22.72
2018-05-04T16:14:14.330Z,22.51
2018-05-04T16:19:15.656Z,22.77
2018-05-04T16:24:16.974Z,22.40
2018-05-04T16:29:18.289Z,22.41
2018-05-04T16:34:19.818Z,22.55
2018-05-04T16:39:22.187Z,22.32
2018-05-04T16:44:23.446Z,22.30
2018-05-04T16:49:24.773Z,22.19
2018-05-04T16:54:26.105Z,22.02
2018-05-04T16:59:27.433Z,21.63
2018-05-04T17:04:28.753Z,21.45
2018-05-04T17:09:30.104Z,21.27
2018-05-04T17:14:31.477Z,21.27
2018-05-04T17:19:32.807Z,21.32
2018-05-04T17:24:34.132Z,21.05
2018-05-04T17:29:36.202Z,21.02
2018-05-04T17:34:37.513Z,20.90
2018-05-04T17:39:39.597Z,20.91
2018-05-04T17:44:40.897Z,20.62
2018-05-04T17:49:42.197Z,20.58
2018-05-04T17:54:44.221Z,20.53
2018-05-04T17:59:46.538Z,20.34
2018-05-04T18:04:47.926Z,20.25
2018-05-04T18:09:49.226Z,20.03
2018-05-04T18:14:50.621Z,19.80
2018-05-04T18:19:51.950Z,19.68
2018-05-04T18:24:53.252Z,19.38
2018-05-04T18:29:54.581Z,19.24
2018-05-04T18:34:55.973Z,18.97
2018-05-04T18:39:57.274Z,18.91
2018-05-04T18:44:58.569Z,18.69
2018-05-04T18:49:59.891Z,18.48
2018-05-04T18:55:01.202Z,18.60
2018-05-04T19:00:03.336Z,18.53
2018-05-04T19:05:04.650Z,18.26
2018-05-04T19:10:05.970Z,18.11
2018-05-04T19:15:07.289Z,18.07
2018-05-04T19:20:08.587Z,17.77
2018-05-04T19:25:09.982Z,17.82
2018-05-04T19:30:11.456Z,17.70
2018-05-04T19:35:12.837Z,17.75
2018-05-04T19:40:14.934Z,17.69
2018-05-04T19:45:16.246Z,17.62
2018-05-04T19:50:18.302Z,17.49
2018-05-04T19:55:19.645Z,17.41
2018-05-04T20:00:20.986Z,17.24
2018-05-04T20:05:22.341Z,17.17
2018-05-04T20:10:23.661Z,17.03
2018-05-04T20:15:26.417Z,16.77
2018-05-04T20:20:27.785Z,16.96
2018-05-04T20:25:30.081Z,16.90
2018-05-04T20:30:33.055Z,16.61
2018-05-04T20:35:34.394Z,16.48
2018-05-04T20:40:35.741Z,16.42
2018-05-04T20:45:37.804Z,16.15
2018-05-04T20:50:39.109Z,15.95
2018-05-04T20:55:40.401Z,15.96
2018-05-04T21:00:41.730Z,15.77
2018-05-04T21:05:43.033Z,15.60
2018-05-04T21:10:44.328Z,15.28
2018-05-04T21:15:45.655Z,15.16
2018-05-04T21:20:46.961Z,15.12
2018-05-04T21:25:49.009Z,15.07
2018-05-04T21:30:50.313Z,15.19
2018-05-04T21:35:51.687Z,15.24
2018-05-04T21:40:53.976Z,15.02
2018-05-04T21:45:55.358Z,15.09
2018-05-04T21:50:57.415Z,15.03
2018-05-04T21:55:58.757Z,14.72
2018-05-04T22:01:00.809Z,14.64
2018-05-04T22:06:02.126Z,14.71
2018-05-04T22:11:03.428Z,14.77
2018-05-04T22:16:05.453Z,14.70
2018-05-04T22:21:06.965Z,14.58
2018-05-04T22:26:08.289Z,14.52
2018-05-04T22:31:09.589Z,14.39
2018-05-04T22:36:10.889Z,14.46
2018-05-04T22:41:12.208Z,14.37
2018-05-04T22:46:13.516Z,14.21
2018-05-04T22:51:14.826Z,14.08
2018-05-04T22:56:16.117Z,14.03
2018-05-04T23:01:17.553Z,14.01
2018-05-04T23:06:19.614Z,13.97
2018-05-04T23:11:20.901Z,13.81
2018-05-04T23:16:22.209Z,14.05
2018-05-04T23:21:23.497Z,13.79
2018-05-04T23:26:24.789Z,13.79
2018-05-04T23:31:26.077Z,13.81
2018-05-04T23:36:27.390Z,13.76
2018-05-04T23:41:29.440Z,13.83
2018-05-04T23:46:30.745Z,13.74
2018-05-04T23:51:32.056Z,13.77
2018-05-04T23:56:33.370Z,13.74
